createdAt,value
2023-07-16T00:02:22.512Z,21.73
2023-07-16T00:05:02.594Z,21.75
2023-07-16T00:07:56.504Z,21.45
2023-07-16T00:10:44.505Z,23.10
2023-07-16T00:13:24.539Z,21.15
2023-07-16T00:16:18.619Z,22.25
2023-07-16T00:19:12.507Z,22.08
2023-07-16T00:21:59.482Z,22.58
2023-07-16T00:24:32.605Z,21.13
2023-07-16T00:27:19.553Z,20.77
2023-07-16T00:29:52.637Z,20.98
2023-07-16T00:32:39.522Z,22.50
2023-07-16T00:35:13.739Z,21.35
2023-07-16T00:38:00.506Z,21.45
2023-07-16T00:40:33.608Z,22.75
2023-07-16T00:43:20.500Z,22.50
2023-07-16T00:45:54.645Z,20.55
2023-07-16T00:48:41.581Z,21.27
2023-07-16T00:51:15.610Z,21.75
2023-07-16T00:54:09.520Z,22.63
2023-07-16T00:56:56.518Z,22.73
2023-07-16T00:59:29.624Z,21.38
2023-07-16T01:02:16.529Z,21.58
2023-07-16T01:04:49.674Z,21.25
2023-07-16T01:07:38.525Z,21.27
2023-07-16T01:10:19.507Z,21.45
2023-07-16T01:13:07.552Z,21.40
2023-07-16T01:15:40.654Z,21.98
2023-07-16T01:18:27.539Z,22.52
2023-07-16T01:21:00.637Z,22.38
2023-07-16T01:23:59.525Z,23.48
2023-07-16T01:26:53.119Z,23.00
2023-07-16T01:29:59.545Z,21.98
2023-07-16T01:32:33.884Z,23.02
2023-07-16T01:35:22.548Z,22.77
2023-07-16T01:37:55.645Z,22.13
2023-07-16T01:40:42.541Z,22.42
2023-07-16T01:43:15.693Z,24.05
2023-07-16T01:46:02.596Z,21.45
2023-07-16T01:48:41.799Z,21.25
2023-07-16T01:51:29.560Z,21.95
2023-07-16T01:54:09.552Z,22.23
2023-07-16T01:57:03.577Z,23.73
2023-07-16T01:59:50.564Z,24.65
2023-07-16T02:02:23.678Z,23.45
2023-07-16T02:05:11.579Z,23.60
2023-07-16T02:07:44.722Z,22.65
2023-07-16T02:10:31.563Z,23.65
2023-07-16T02:13:04.710Z,22.17
2023-07-16T02:15:51.596Z,22.48
2023-07-16T02:18:24.658Z,23.50
2023-07-16T02:21:11.567Z,22.15
2023-07-16T02:23:44.678Z,24.15
2023-07-16T02:26:31.560Z,23.80
2023-07-16T02:29:05.427Z,22.95
2023-07-16T02:31:45.714Z,22.58
2023-07-16T02:34:25.588Z,22.52
2023-07-16T02:36:58.693Z,22.60
2023-07-16T02:39:46.578Z,23.60
2023-07-16T02:42:19.657Z,22.38
2023-07-16T02:45:06.586Z,22.63
2023-07-16T02:47:39.720Z,23.67
2023-07-16T02:50:26.597Z,24.67
2023-07-16T02:52:59.707Z,24.30
2023-07-16T02:55:46.581Z,26.23
2023-07-16T02:58:19.712Z,24.73
2023-07-16T03:01:24.634Z,26.27
2023-07-16T03:03:57.759Z,23.73
2023-07-16T03:06:44.601Z,24.70
2023-07-16T03:09:18.708Z,22.77
2023-07-16T03:12:05.661Z,24.23
2023-07-16T03:14:48.582Z,22.77
2023-07-16T03:17:35.615Z,23.40
2023-07-16T03:20:16.586Z,23.98
2023-07-16T03:23:03.640Z,24.75
2023-07-16T03:25:36.685Z,24.23
2023-07-16T03:28:23.584Z,24.50
2023-07-16T03:31:05.618Z,25.25
2023-07-16T03:33:59.585Z,24.05
2023-07-16T03:36:46.615Z,23.88
2023-07-16T03:39:19.761Z,25.30
2023-07-16T03:42:06.649Z,24.48
2023-07-16T03:44:39.809Z,25.55
2023-07-16T03:47:26.658Z,23.13
2023-07-16T03:49:59.723Z,23.42
2023-07-16T03:52:46.611Z,25.45
2023-07-16T03:55:19.729Z,23.17
2023-07-16T03:58:06.626Z,24.92
2023-07-16T04:00:39.713Z,23.88
2023-07-16T04:03:26.766Z,25.10
2023-07-16T04:06:16.854Z,26.02
2023-07-16T04:09:03.631Z,24.95
2023-07-16T04:11:36.759Z,24.02
2023-07-16T04:14:23.632Z,24.80
2023-07-16T04:17:03.684Z,23.85
2023-07-16T04:19:50.625Z,24.17
2023-07-16T04:22:23.784Z,23.50
2023-07-16T04:25:11.633Z,23.58
2023-07-16T04:27:45.774Z,23.77
2023-07-16T04:30:32.681Z,25.92
2023-07-16T04:33:15.641Z,23.27
2023-07-16T04:36:09.641Z,22.95
2023-07-16T04:38:56.623Z,21.00
2023-07-16T04:41:29.746Z,23.02
2023-07-16T04:44:16.644Z,24.95
2023-07-16T04:46:49.855Z,24.48
2023-07-16T04:49:36.643Z,24.55
2023-07-16T04:52:09.803Z,22.48
2023-07-16T04:55:03.652Z,21.17
2023-07-16T04:58:00.660Z,21.40
2023-07-16T05:00:47.694Z,23.45
2023-07-16T05:03:20.772Z,24.25
2023-07-16T05:06:07.662Z,24.17
2023-07-16T05:08:40.765Z,23.40
2023-07-16T05:11:27.655Z,21.92
2023-07-16T05:14:00.838Z,22.55
2023-07-16T05:16:47.711Z,22.65
2023-07-16T05:19:20.886Z,21.95
2023-07-16T05:22:07.692Z,21.00
2023-07-16T05:24:40.776Z,19.55
2023-07-16T05:27:27.677Z,21.52
2023-07-16T05:30:00.760Z,21.08
2023-07-16T05:32:48.755Z,20.98
2023-07-16T05:35:21.770Z,20.05
2023-07-16T05:38:08.682Z,19.83
2023-07-16T05:40:48.694Z,20.30
2023-07-16T05:43:42.675Z,19.40
2023-07-16T05:46:29.698Z,19.27
2023-07-16T05:49:02.825Z,19.98
2023-07-16T05:52:04.790Z,19.40
2023-07-16T05:54:59.685Z,22.27
2023-07-16T05:57:46.673Z,20.60
2023-07-16T06:00:20.808Z,22.98
2023-07-16T06:03:08.727Z,23.02
2023-07-16T06:05:42.854Z,23.40
2023-07-16T06:08:29.681Z,20.33
2023-07-16T06:11:05.155Z,21.10
2023-07-16T06:13:51.715Z,19.50
2023-07-16T06:16:24.859Z,20.50
2023-07-16T06:19:11.719Z,18.42
2023-07-16T06:21:44.894Z,20.65
2023-07-16T06:24:31.717Z,19.23
2023-07-16T06:27:04.818Z,20.45
2023-07-16T06:29:51.712Z,18.75
2023-07-16T06:32:31.772Z,18.95
2023-07-16T06:35:25.715Z,18.13
2023-07-16T06:38:12.794Z,19.83
2023-07-16T06:40:45.819Z,21.23
2023-07-16T06:43:32.858Z,18.75
2023-07-16T06:46:05.901Z,20.25
2023-07-16T06:48:52.700Z,20.15
2023-07-16T06:51:30.639Z,18.05
2023-07-16T06:54:17.720Z,22.70
2023-07-16T06:57:11.731Z,21.55
2023-07-16T07:00:05.753Z,19.98
2023-07-16T07:02:59.799Z,18.90
2023-07-16T07:05:49.737Z,18.35
2023-07-16T07:08:22.901Z,18.50
2023-07-16T07:11:09.768Z,16.80
2023-07-16T07:13:43.394Z,18.05
2023-07-16T07:16:29.775Z,21.48
2023-07-16T07:19:04.866Z,19.42
2023-07-16T07:21:51.777Z,20.67
2023-07-16T07:24:31.737Z,18.88
2023-07-16T07:27:18.728Z,22.73
2023-07-16T07:29:53.202Z,20.45
2023-07-16T07:32:39.801Z,20.55
2023-07-16T07:35:12.824Z,18.08
2023-07-16T07:37:59.749Z,18.70
2023-07-16T07:40:40.739Z,18.60
2023-07-16T07:43:34.761Z,18.48
2023-07-16T07:46:21.814Z,16.38
2023-07-16T07:48:55.302Z,16.77
2023-07-16T07:51:41.770Z,18.02
2023-07-16T07:54:21.755Z,19.02
2023-07-16T07:57:18.496Z,20.40
2023-07-16T08:00:05.774Z,19.27
2023-07-16T08:02:45.892Z,19.92
2023-07-16T08:05:39.807Z,16.98
2023-07-16T08:08:26.790Z,17.38
2023-07-16T08:11:02.860Z,18.52
2023-07-16T08:13:49.765Z,18.63
2023-07-16T08:16:22.896Z,19.45
2023-07-16T08:19:09.765Z,17.30
2023-07-16T08:21:42.883Z,17.80
2023-07-16T08:24:29.765Z,17.75
2023-07-16T08:27:02.898Z,18.63
2023-07-16T08:29:49.815Z,17.30
2023-07-16T08:32:29.816Z,17.77
2023-07-16T08:35:24.826Z,17.00
2023-07-16T08:38:11.824Z,17.40
2023-07-16T08:40:45.892Z,18.20
2023-07-16T08:43:32.790Z,20.23
2023-07-16T08:46:06.924Z,20.60
2023-07-16T08:48:53.798Z,21.80
2023-07-16T08:51:28.990Z,21.90
2023-07-16T08:54:15.813Z,22.55
2023-07-16T08:56:50.908Z,19.88
2023-07-16T08:59:37.807Z,19.50
2023-07-16T09:02:11.954Z,19.63
2023-07-16T09:05:02.834Z,18.75
2023-07-16T09:07:42.830Z,19.30
2023-07-16T09:10:29.867Z,19.35
2023-07-16T09:13:12.816Z,18.70
2023-07-16T09:16:06.841Z,19.60
2023-07-16T09:18:53.817Z,18.15
2023-07-16T09:21:35.825Z,19.60
2023-07-16T09:24:30.842Z,18.40
2023-07-16T09:27:26.831Z,19.25
2023-07-16T09:30:21.824Z,18.80
2023-07-16T09:33:20.839Z,18.40
2023-07-16T09:35:56.935Z,18.48
2023-07-16T09:38:43.830Z,17.33
2023-07-16T09:41:16.942Z,16.73
2023-07-16T09:44:03.891Z,17.35
2023-07-16T09:46:37.006Z,19.23
2023-07-16T09:49:23.854Z,19.33
2023-07-16T09:52:06.854Z,18.20
2023-07-16T09:55:00.867Z,19.15
2023-07-16T09:57:57.836Z,19.15
2023-07-16T10:00:46.915Z,19.58
2023-07-16T10:03:20.963Z,20.02
2023-07-16T10:06:14.999Z,17.40
2023-07-16T10:08:47.972Z,19.23
2023-07-16T10:11:34.835Z,19.25
2023-07-16T10:14:07.950Z,19.25
2023-07-16T10:16:55.889Z,19.00
2023-07-16T10:19:31.664Z,18.08
2023-07-16T10:22:18.882Z,17.90
2023-07-16T10:24:51.962Z,17.98
2023-07-16T10:27:40.885Z,18.63
2023-07-16T10:30:14.975Z,18.38
2023-07-16T10:33:01.952Z,17.80
2023-07-16T10:35:34.957Z,18.15
2023-07-16T10:38:21.896Z,18.60
2023-07-16T10:40:54.980Z,17.80
2023-07-16T10:43:41.895Z,18.05
2023-07-16T10:46:17.261Z,19.70
2023-07-16T10:49:03.871Z,18.33
2023-07-16T10:51:37.139Z,16.80
2023-07-16T10:54:16.888Z,18.02
2023-07-16T10:56:57.028Z,17.67
2023-07-16T10:59:36.894Z,19.17
2023-07-16T11:02:19.139Z,18.15
2023-07-16T11:05:04.930Z,18.27
2023-07-16T11:07:48.696Z,17.95
2023-07-16T11:10:31.883Z,18.33
2023-07-16T11:13:12.035Z,18.30
2023-07-16T11:15:52.033Z,19.23
2023-07-16T11:18:31.941Z,19.58
2023-07-16T11:21:07.023Z,19.27
2023-07-16T11:23:53.931Z,19.48
2023-07-16T11:26:33.934Z,21.73
2023-07-16T11:29:22.892Z,18.95
2023-07-16T11:32:00.092Z,18.77
2023-07-16T11:34:59.912Z,17.23
2023-07-16T11:37:34.066Z,17.63
2023-07-16T11:40:27.934Z,19.05
2023-07-16T11:43:01.023Z,18.90
2023-07-16T11:45:47.934Z,19.45
2023-07-16T11:48:21.154Z,18.73
2023-07-16T11:51:07.950Z,18.70
2023-07-16T11:53:41.051Z,19.10
2023-07-16T11:56:53.952Z,20.15
2023-07-16T11:59:40.941Z,16.63
2023-07-16T12:02:15.608Z,17.58
2023-07-16T12:05:01.956Z,16.95
2023-07-16T12:07:50.950Z,19.05
2023-07-16T12:10:44.970Z,19.40
2023-07-16T12:13:31.943Z,18.35
2023-07-16T12:16:05.056Z,18.35
2023-07-16T12:18:51.961Z,20.33
2023-07-16T12:21:25.043Z,19.92
2023-07-16T12:24:11.966Z,19.50
2023-07-16T12:26:45.082Z,19.25
2023-07-16T12:29:31.971Z,19.45
2023-07-16T12:32:05.099Z,19.83
2023-07-16T12:34:51.949Z,19.27
2023-07-16T12:37:34.329Z,18.55
2023-07-16T12:40:29.981Z,18.77
2023-07-16T12:43:16.960Z,20.40
2023-07-16T12:45:50.098Z,19.60
2023-07-16T12:48:40.062Z,19.17
2023-07-16T12:51:15.078Z,22.05
2023-07-16T12:54:01.960Z,20.33
2023-07-16T12:56:35.350Z,20.08
2023-07-16T12:59:53.969Z,19.55
2023-07-16T13:02:27.094Z,19.73
2023-07-16T13:05:13.987Z,20.48
2023-07-16T13:07:47.100Z,18.73
2023-07-16T13:10:33.973Z,21.02
2023-07-16T13:13:14.991Z,20.65
2023-07-16T13:16:01.987Z,19.60
2023-07-16T13:18:41.996Z,20.98
2023-07-16T13:21:29.017Z,18.23
2023-07-16T13:24:08.987Z,19.73
2023-07-16T13:27:02.985Z,19.77
2023-07-16T13:29:49.997Z,21.38
2023-07-16T13:32:24.193Z,17.88
2023-07-16T13:35:11.010Z,18.33
2023-07-16T13:37:54.007Z,18.42
2023-07-16T13:40:41.023Z,17.27
2023-07-16T13:43:14.090Z,18.23
2023-07-16T13:46:01.031Z,20.05
2023-07-16T13:48:43.968Z,19.38
2023-07-16T13:51:41.018Z,19.83
2023-07-16T13:54:14.208Z,17.38
2023-07-16T13:57:01.031Z,18.65
2023-07-16T13:59:34.104Z,17.35
2023-07-16T14:02:21.106Z,19.33
2023-07-16T14:04:54.977Z,19.30
2023-07-16T14:07:45.043Z,18.05
2023-07-16T14:10:25.040Z,18.63
2023-07-16T14:13:19.038Z,16.55
2023-07-16T14:16:06.043Z,19.45
2023-07-16T14:18:39.127Z,20.10
2023-07-16T14:21:26.036Z,19.02
2023-07-16T14:23:59.114Z,20.58
2023-07-16T14:26:46.040Z,21.08
2023-07-16T14:29:19.129Z,20.20
2023-07-16T14:32:09.054Z,18.65
2023-07-16T14:34:49.037Z,17.88
2023-07-16T14:37:36.060Z,18.10
2023-07-16T14:40:13.148Z,18.23
2023-07-16T14:43:00.037Z,18.73
2023-07-16T14:45:34.303Z,18.83
2023-07-16T14:48:21.071Z,19.05
2023-07-16T14:50:57.134Z,18.83
2023-07-16T14:53:44.055Z,18.55
2023-07-16T14:56:17.337Z,18.42
2023-07-16T14:59:04.092Z,16.60
2023-07-16T15:01:37.300Z,18.58
2023-07-16T15:04:24.055Z,18.70
2023-07-16T15:07:04.082Z,18.75
2023-07-16T15:09:58.053Z,19.25
2023-07-16T15:12:45.069Z,20.02
2023-07-16T15:15:19.154Z,19.00
2023-07-16T15:18:06.133Z,19.88
2023-07-16T15:20:42.183Z,20.17
2023-07-16T15:23:29.090Z,21.67
2023-07-16T15:26:15.255Z,19.67
2023-07-16T15:29:02.359Z,19.98
2023-07-16T15:31:35.292Z,21.17
2023-07-16T15:34:22.168Z,19.08
2023-07-16T15:36:55.186Z,16.88
2023-07-16T15:39:43.189Z,19.95
2023-07-16T15:42:23.118Z,18.05
2023-07-16T15:45:17.118Z,17.95
2023-07-16T15:48:07.177Z,16.58
2023-07-16T15:50:40.807Z,18.33
2023-07-16T15:53:27.148Z,19.83
2023-07-16T15:56:01.238Z,18.55
2023-07-16T15:58:48.193Z,18.15
2023-07-16T16:01:28.139Z,17.75
2023-07-16T16:04:15.130Z,19.58
2023-07-16T16:06:55.122Z,18.10
2023-07-16T16:09:42.124Z,16.65
2023-07-16T16:12:23.126Z,17.90
2023-07-16T16:15:10.102Z,19.45
2023-07-16T16:17:50.306Z,19.65
2023-07-16T16:20:37.124Z,18.50
2023-07-16T16:23:10.490Z,18.77
2023-07-16T16:25:57.211Z,20.77
2023-07-16T16:28:30.257Z,20.02
2023-07-16T16:31:17.415Z,19.10
2023-07-16T16:33:51.230Z,19.80
2023-07-16T16:36:41.157Z,19.58
2023-07-16T16:39:21.134Z,20.45
2023-07-16T16:42:15.120Z,18.58
2023-07-16T16:45:03.144Z,19.67
2023-07-16T16:47:37.576Z,19.25
2023-07-16T16:50:27.173Z,17.17
2023-07-16T16:53:00.524Z,18.75
2023-07-16T16:55:54.166Z,19.70
2023-07-16T16:58:48.175Z,18.45
2023-07-16T17:01:35.194Z,19.38
2023-07-16T17:04:15.209Z,18.77
2023-07-16T17:07:05.141Z,16.42
2023-07-16T17:09:45.160Z,16.67
2023-07-16T17:12:39.883Z,17.35
2023-07-16T17:15:27.174Z,18.23
2023-07-16T17:18:01.017Z,18.63
2023-07-16T17:20:51.156Z,18.55
2023-07-16T17:23:24.307Z,19.17
2023-07-16T17:26:11.157Z,19.83
2023-07-16T17:28:46.635Z,20.45
2023-07-16T17:31:33.208Z,22.92
2023-07-16T17:34:06.399Z,19.98
2023-07-16T17:36:53.163Z,22.25
2023-07-16T17:39:26.336Z,21.65
2023-07-16T17:42:13.182Z,22.55
2023-07-16T17:44:49.015Z,26.05
2023-07-16T17:47:36.417Z,25.23
2023-07-16T17:50:10.322Z,24.45
2023-07-16T17:53:03.649Z,23.73
2023-07-16T17:55:44.197Z,22.48
2023-07-16T17:58:42.215Z,23.27
2023-07-16T18:01:39.249Z,20.42
2023-07-16T18:04:26.445Z,20.05
2023-07-16T18:07:00.302Z,20.95
2023-07-16T18:09:47.309Z,21.08
2023-07-16T18:12:21.706Z,19.38
2023-07-16T18:15:12.211Z,20.88
2023-07-16T18:17:48.274Z,19.90
2023-07-16T18:20:36.235Z,20.88
2023-07-16T18:23:10.357Z,20.88
2023-07-16T18:25:57.200Z,20.65
2023-07-16T18:28:37.251Z,21.75
2023-07-16T18:31:24.238Z,21.73
2023-07-16T18:34:04.283Z,21.63
2023-07-16T18:36:58.193Z,20.02
2023-07-16T18:39:45.215Z,20.35
2023-07-16T18:42:20.159Z,22.02
2023-07-16T18:45:09.247Z,21.65
2023-07-16T18:47:42.598Z,20.45
2023-07-16T18:50:29.252Z,23.15
2023-07-16T18:53:02.986Z,21.92
2023-07-16T18:55:57.251Z,21.88
2023-07-16T18:58:51.244Z,22.52
2023-07-16T19:01:45.272Z,20.27
2023-07-16T19:04:32.333Z,23.65
2023-07-16T19:07:13.289Z,23.40
2023-07-16T19:10:07.253Z,22.65
2023-07-16T19:12:54.275Z,23.20
2023-07-16T19:15:27.332Z,21.67
2023-07-16T19:18:14.339Z,21.85
2023-07-16T19:20:48.016Z,22.50
2023-07-16T19:23:37.381Z,19.23
2023-07-16T19:26:10.344Z,20.65
2023-07-16T19:29:00.213Z,22.98
2023-07-16T19:31:40.312Z,21.13
2023-07-16T19:34:34.277Z,23.52
2023-07-16T19:37:24.221Z,22.38
2023-07-16T19:40:04.275Z,20.95
2023-07-16T19:42:58.296Z,20.10
2023-07-16T19:45:45.308Z,22.08
2023-07-16T19:48:18.348Z,22.42
2023-07-16T19:51:05.285Z,21.25
2023-07-16T19:53:39.391Z,20.90
2023-07-16T19:56:33.299Z,22.10
2023-07-16T19:59:20.271Z,22.00
2023-07-16T20:02:00.518Z,21.55
2023-07-16T20:04:47.305Z,21.48
2023-07-16T20:07:22.714Z,24.30
2023-07-16T20:10:15.939Z,22.75
2023-07-16T20:12:58.001Z,24.85
2023-07-16T20:15:44.288Z,24.98
2023-07-16T20:18:27.306Z,23.90
2023-07-16T20:21:21.303Z,22.33
2023-07-16T20:24:18.177Z,23.98
2023-07-16T20:27:12.353Z,24.88
2023-07-16T20:29:59.294Z,23.30
2023-07-16T20:32:33.715Z,24.48
2023-07-16T20:35:20.315Z,24.65
2023-07-16T20:37:53.452Z,22.83
2023-07-16T20:40:40.312Z,23.25
2023-07-16T20:43:22.735Z,22.38
2023-07-16T20:46:09.333Z,23.35
2023-07-16T20:48:43.866Z,23.27
2023-07-16T20:51:30.309Z,23.38
2023-07-16T20:54:04.192Z,22.08
2023-07-16T20:57:00.314Z,22.13
2023-07-16T20:59:47.332Z,21.92
2023-07-16T21:02:20.484Z,22.10
2023-07-16T21:05:07.336Z,23.00
2023-07-16T21:07:43.050Z,23.65
2023-07-16T21:10:34.318Z,22.42
2023-07-16T21:13:07.441Z,22.67
2023-07-16T21:15:54.324Z,22.50
2023-07-16T21:18:27.490Z,20.48
2023-07-16T21:21:15.589Z,20.25
2023-07-16T21:23:49.461Z,22.38
2023-07-16T21:26:38.329Z,22.13
2023-07-16T21:29:13.459Z,22.15
2023-07-16T21:32:02.325Z,22.75
2023-07-16T21:34:36.416Z,21.85
2023-07-16T21:37:24.339Z,20.92
2023-07-16T21:39:57.458Z,21.85
2023-07-16T21:42:44.343Z,22.20
2023-07-16T21:45:18.538Z,22.83
2023-07-16T21:48:06.389Z,21.38
2023-07-16T21:50:39.490Z,22.23
2023-07-16T21:53:26.344Z,22.20
2023-07-16T21:55:59.521Z,21.73
2023-07-16T21:58:47.374Z,23.30
2023-07-16T22:01:20.693Z,24.23
2023-07-16T22:04:07.376Z,23.10
2023-07-16T22:06:40.565Z,22.27
2023-07-16T22:09:45.455Z,20.60
2023-07-16T22:12:18.450Z,20.65
2023-07-16T22:15:05.356Z,21.33
2023-07-16T22:17:47.492Z,21.05
2023-07-16T22:20:42.343Z,22.52
2023-07-16T22:23:29.368Z,22.38
2023-07-16T22:26:02.486Z,20.98
2023-07-16T22:28:49.362Z,21.60
2023-07-16T22:31:29.455Z,21.77
2023-07-16T22:34:21.607Z,20.70
2023-07-16T22:37:04.712Z,21.40
2023-07-16T22:39:51.372Z,20.85
2023-07-16T22:42:26.029Z,20.80
2023-07-16T22:45:14.433Z,19.08
2023-07-16T22:47:54.493Z,20.63
2023-07-16T22:50:41.373Z,21.95
2023-07-16T22:53:14.450Z,21.25
2023-07-16T22:56:01.389Z,21.25
2023-07-16T22:58:34.478Z,20.52
2023-07-16T23:01:21.455Z,22.02
2023-07-16T23:03:54.557Z,22.88
2023-07-16T23:06:41.382Z,22.50
2023-07-16T23:09:15.096Z,22.25
2023-07-16T23:12:04.656Z,21.15
2023-07-16T23:14:41.358Z,21.00
2023-07-16T23:17:30.759Z,22.42
2023-07-16T23:20:08.291Z,21.08
2023-07-16T23:22:55.460Z,21.83
2023-07-16T23:25:28.475Z,21.65
2023-07-16T23:28:15.406Z,21.20
2023-07-16T23:30:48.520Z,23.13
2023-07-16T23:33:35.393Z,22.02
2023-07-16T23:36:08.476Z,21.67
2023-07-16T23:38:55.401Z,21.75
2023-07-16T23:41:28.547Z,21.83
2023-07-16T23:44:15.394Z,21.65
2023-07-16T23:46:55.457Z,22.23
2023-07-16T23:49:42.466Z,21.70
2023-07-16T23:52:15.498Z,22.90
2023-07-16T23:55:02.431Z,21.60
2023-07-16T23:57:42.408Z,22.30
